Barnes City, Iowa
Current Conditions -  °F | °C
As of 6:55 AM on Saturday 22 Nov 2014 (Local Time) from KOOA Reporting Station
Moderate Fog Moderate Fog  
Wind Chill: 33°   Ceiling: 100
Heat Index: 39°   Visibility: 0.25mi
Dew Point: 38°   Wind: 9mph
Humidity: 97%   Direction: 170°S
Pressure: 29.92"   Gusts: NA
Location:  41.51°N, 92.47°W
Report Text: KOOA 221255Z AUTO 17008KT 1/4SM FG OVC001 04/04 A2992 RMK AO2 T00390035
Loading
Personal Weather Stations






























Interactive Weather Map New forecast layout! Learn more

10-Day Weather Forecast

Advertisements
Track Severe Weather on mobile